Time;durP1;ratioP1;P1;durP2;ratioP2;P2;SDS_P1;SDS_P2;PMS_P1;PMS_P2;Temp;Humidity;BMP_temperature;BMP_pressure;BME280_temperature;BME280_humidity;BME280_pressure;Samples;Min_cycle;Max_cycle;Signal;HPM_P1;HPM_P2
2022/04/19 00:00:44;;;;;;;2.85;1.40;;;;;;;;;;4924750;29;20114;-64
2022/04/19 00:03:11;;;;;;;2.05;1.42;;;;;;;;;;4910518;29;20044;-65
2022/04/19 00:05:37;;;;;;;2.45;1.20;;;;;;;;;;4911102;29;20099;-63
2022/04/19 00:08:04;;;;;;;1.90;1.40;;;;;;;;;;4912820;29;20039;-64
2022/04/19 00:10:30;;;;;;;2.08;1.10;;;;;;;;;;4911782;29;20052;-65
2022/04/19 00:12:56;;;;;;;2.25;1.58;;;;;;;;;;4912798;29;20262;-66
2022/04/19 00:15:24;;;;;;;2.08;1.30;;;;;;;;;;4910667;29;20048;-65
2022/04/19 00:17:50;;;;;;;3.60;1.60;;;;;;;;;;4911803;29;20056;-67
2022/04/19 00:20:15;;;;;;;2.63;0.98;;;;;;;;;;4909232;29;20063;-65
2022/04/19 00:22:41;;;;;;;6.47;1.42;;;;;;;;;;4909802;29;20473;-64
2022/04/19 00:25:07;;;;;;;2.78;1.20;;;;;;;;;;4910027;29;20134;-65
2022/04/19 00:27:33;;;;;;;1.77;1.08;;;;;;;;;;4913559;29;20100;-65
2022/04/19 00:30:00;;;;;;;2.22;1.13;;;;;;;;;;4911846;29;20059;-65
2022/04/19 00:32:25;;;;;;;2.00;1.20;;;;;;;;;;4909464;29;20047;-65
2022/04/19 00:34:51;;;;;;;1.60;1.10;;;;;;;;;;4911115;29;20060;-66
2022/04/19 00:37:18;;;;;;;4.32;1.27;;;;;;;;;;4912074;29;20063;-66
2022/04/19 00:39:44;;;;;;;2.08;1.20;;;;;;;;;;4914275;29;20047;-65
2022/04/19 00:42:09;;;;;;;2.42;1.30;;;;;;;;;;4912340;29;20048;-65
2022/04/19 00:44:37;;;;;;;2.80;1.30;;;;;;;;;;4912918;29;20107;-65
2022/04/19 00:47:09;;;;;;;1.98;1.25;;;;;;;;;;4928321;29;20028;-64
2022/04/19 00:49:42;;;;;;;1.48;1.20;;;;;;;;;;4896643;29;20053;-65
2022/04/19 00:52:08;;;;;;;2.25;1.48;;;;;;;;;;4909627;29;20040;-64
2022/04/19 00:54:34;;;;;;;1.60;1.20;;;;;;;;;;4892535;29;20068;-65
2022/04/19 00:57:00;;;;;;;2.38;1.17;;;;;;;;;;4895220;29;20068;-64
2022/04/19 00:59:26;;;;;;;1.73;1.25;;;;;;;;;;4905303;29;20125;-64
2022/04/19 01:01:51;;;;;;;2.30;1.10;;;;;;;;;;4913975;29;20045;-64
2022/04/19 01:04:17;;;;;;;2.72;1.30;;;;;;;;;;4898515;29;20036;-64
2022/04/19 01:06:44;;;;;;;1.98;1.10;;;;;;;;;;4916722;29;20040;-64
2022/04/19 01:09:09;;;;;;;1.55;1.10;;;;;;;;;;4912857;29;20133;-63
2022/04/19 01:14:20;;;;;;;2.67;1.27;;;;;;;;;;4907083;29;20108;-65
2022/04/19 01:16:46;;;;;;;1.25;1.00;;;;;;;;;;4915737;29;20028;-63
2022/04/19 01:19:16;;;;;;;1.27;1.02;;;;;;;;;;4916504;29;20039;-63
2022/04/19 01:21:46;;;;;;;1.50;1.13;;;;;;;;;;4899542;29;20058;-65
2022/04/19 01:24:18;;;;;;;1.55;1.00;;;;;;;;;;4905300;29;20048;-64
2022/04/19 01:26:44;;;;;;;3.25;1.08;;;;;;;;;;4915018;29;20052;-65
2022/04/19 01:29:10;;;;;;;2.30;1.10;;;;;;;;;;4907679;29;20071;-65
2022/04/19 01:31:38;;;;;;;3.08;1.10;;;;;;;;;;4895870;29;20044;-64
2022/04/19 01:34:04;;;;;;;1.98;1.10;;;;;;;;;;4894308;29;20063;-64
2022/04/19 01:36:29;;;;;;;4.55;0.90;;;;;;;;;;4895073;29;20076;-64
2022/04/19 01:38:55;;;;;;;1.40;1.20;;;;;;;;;;4893967;29;20075;-64
2022/04/19 01:41:20;;;;;;;2.47;1.27;;;;;;;;;;4897721;29;20048;-64
2022/04/19 01:43:45;;;;;;;1.63;1.02;;;;;;;;;;4894819;29;20040;-63
2022/04/19 01:46:11;;;;;;;1.58;1.17;;;;;;;;;;4894822;29;20072;-63
2022/04/19 01:48:36;;;;;;;1.40;1.00;;;;;;;;;;4895516;29;20044;-65
2022/04/19 01:51:02;;;;;;;1.50;1.00;;;;;;;;;;4898395;29;20064;-65
2022/04/19 01:53:28;;;;;;;1.25;1.05;;;;;;;;;;4895091;29;20052;-64
2022/04/19 01:55:53;;;;;;;1.52;1.08;;;;;;;;;;4893783;29;20036;-64
2022/04/19 01:58:19;;;;;;;2.67;1.45;;;;;;;;;;4895515;29;20061;-65
2022/04/19 02:00:44;;;;;;;1.77;0.95;;;;;;;;;;4892375;29;20037;-64
2022/04/19 02:03:10;;;;;;;1.70;1.20;;;;;;;;;;4895766;29;20044;-66
2022/04/19 02:05:35;;;;;;;1.95;1.20;;;;;;;;;;4894294;29;20056;-65
2022/04/19 02:08:00;;;;;;;2.13;1.20;;;;;;;;;;4901019;29;20059;-65
2022/04/19 02:10:26;;;;;;;2.03;1.00;;;;;;;;;;4914228;29;20434;-64
2022/04/19 02:12:52;;;;;;;3.83;1.25;;;;;;;;;;4912671;29;20064;-64
2022/04/19 02:15:18;;;;;;;8.23;2.90;;;;;;;;;;4913972;29;20111;-64
2022/04/19 02:17:49;;;;;;;1.42;0.90;;;;;;;;;;4913944;29;20044;-65
2022/04/19 02:20:16;;;;;;;2.25;1.15;;;;;;;;;;4912895;29;20123;-65
2022/04/19 02:22:42;;;;;;;3.17;1.13;;;;;;;;;;4908877;29;20087;-65
2022/04/19 02:25:09;;;;;;;4.10;1.13;;;;;;;;;;4896625;29;20044;-65
2022/04/19 02:27:35;;;;;;;3.05;1.30;;;;;;;;;;4897712;29;20061;-65
2022/04/19 02:30:04;;;;;;;3.60;1.50;;;;;;;;;;4895399;29;20066;-64
2022/04/19 02:32:31;;;;;;;2.22;1.13;;;;;;;;;;4896128;29;20415;-65
2022/04/19 02:34:57;;;;;;;1.85;1.10;;;;;;;;;;4895191;29;20056;-65
2022/04/19 02:37:23;;;;;;;1.50;1.00;;;;;;;;;;4896150;29;20036;-65
2022/04/19 02:39:49;;;;;;;3.13;1.35;;;;;;;;;;4892498;29;20056;-65
2022/04/19 02:42:15;;;;;;;2.95;1.77;;;;;;;;;;4894233;29;20391;-64
2022/04/19 02:44:40;;;;;;;2.08;1.42;;;;;;;;;;4891998;29;20041;-64
2022/04/19 02:47:06;;;;;;;2.22;1.23;;;;;;;;;;4894962;29;20060;-64
2022/04/19 02:49:32;;;;;;;3.42;1.50;;;;;;;;;;4894318;29;20033;-65
2022/04/19 02:51:58;;;;;;;1.95;1.27;;;;;;;;;;4896165;29;20047;-63
2022/04/19 02:54:25;;;;;;;2.42;1.40;;;;;;;;;;4888825;29;20048;-63
2022/04/19 02:56:50;;;;;;;2.55;1.45;;;;;;;;;;4892620;29;20124;-65
2022/04/19 02:59:15;;;;;;;1.25;1.00;;;;;;;;;;4889679;29;20135;-65
2022/04/19 03:01:42;;;;;;;1.67;1.30;;;;;;;;;;4894480;29;20116;-64
2022/04/19 03:04:07;;;;;;;2.10;1.27;;;;;;;;;;4892789;29;20032;-64
2022/04/19 03:06:33;;;;;;;2.65;1.55;;;;;;;;;;4894683;29;20045;-64
2022/04/19 03:08:58;;;;;;;1.42;1.10;;;;;;;;;;4893044;29;20052;-62
2022/04/19 03:11:23;;;;;;;1.45;1.30;;;;;;;;;;4896585;29;20099;-65
2022/04/19 03:13:49;;;;;;;2.05;1.20;;;;;;;;;;4890769;29;20226;-65
2022/04/19 03:16:14;;;;;;;1.38;1.10;;;;;;;;;;4894325;29;20032;-65
2022/04/19 03:18:41;;;;;;;2.22;1.35;;;;;;;;;;4891310;29;20135;-63
2022/04/19 03:21:10;;;;;;;3.10;1.25;;;;;;;;;;4891001;29;20475;-63
2022/04/19 03:29:06;;;;;;;2.63;1.50;;;;;;;;;;4891871;29;20063;-62
2022/04/19 03:31:32;;;;;;;1.95;1.58;;;;;;;;;;4894719;29;20036;-64
2022/04/19 03:33:58;;;;;;;3.13;1.73;;;;;;;;;;4894182;29;20029;-62
2022/04/19 03:36:24;;;;;;;2.65;1.52;;;;;;;;;;4896904;29;20052;-65
2022/04/19 03:38:49;;;;;;;2.83;1.60;;;;;;;;;;4889635;29;20052;-65
2022/04/19 03:41:15;;;;;;;2.33;1.63;;;;;;;;;;4893443;29;20120;-65
2022/04/19 03:43:41;;;;;;;4.05;1.58;;;;;;;;;;4894450;29;20032;-62
2022/04/19 03:46:10;;;;;;;2.47;1.77;;;;;;;;;;4890173;29;20033;-65
2022/04/19 03:48:36;;;;;;;3.03;1.73;;;;;;;;;;4907432;29;20109;-65
2022/04/19 03:51:03;;;;;;;5.03;1.63;;;;;;;;;;4896891;29;20052;-62
2022/04/19 03:53:29;;;;;;;2.00;1.60;;;;;;;;;;4895650;29;20048;-64
2022/04/19 03:55:58;;;;;;;4.53;1.38;;;;;;;;;;4892602;29;20399;-66
2022/04/19 03:58:25;;;;;;;5.10;1.70;;;;;;;;;;4895214;29;20041;-64
2022/04/19 04:00:50;;;;;;;4.90;1.75;;;;;;;;;;4892298;29;20127;-65
2022/04/19 04:03:16;;;;;;;2.30;1.40;;;;;;;;;;4888465;29;20197;-62
2022/04/19 04:05:41;;;;;;;2.90;1.80;;;;;;;;;;4891934;29;20490;-64
2022/04/19 04:08:07;;;;;;;2.58;1.67;;;;;;;;;;4893364;29;20143;-65
2022/04/19 04:10:33;;;;;;;2.40;1.58;;;;;;;;;;4892039;29;20032;-63
2022/04/19 04:13:00;;;;;;;3.58;1.80;;;;;;;;;;4891611;29;20054;-63
2022/04/19 04:15:25;;;;;;;2.70;1.80;;;;;;;;;;4895585;29;20044;-64
2022/04/19 04:17:50;;;;;;;4.80;2.00;;;;;;;;;;4890389;29;20057;-63
2022/04/19 04:20:16;;;;;;;5.63;1.95;;;;;;;;;;4894192;29;20052;-65
2022/04/19 04:22:42;;;;;;;4.50;1.95;;;;;;;;;;4893796;29;20127;-63
2022/04/19 04:25:07;;;;;;;3.95;2.08;;;;;;;;;;4892429;29;20044;-66
2022/04/19 04:27:33;;;;;;;6.70;2.30;;;;;;;;;;4891406;29;20492;-61
2022/04/19 04:29:59;;;;;;;4.95;2.25;;;;;;;;;;4893460;29;20052;-63
2022/04/19 04:32:24;;;;;;;3.17;1.95;;;;;;;;;;4893382;29;20055;-63
2022/04/19 04:34:50;;;;;;;3.08;2.10;;;;;;;;;;4893194;29;20076;-63
2022/04/19 04:37:15;;;;;;;2.60;1.90;;;;;;;;;;4895078;29;20132;-61
2022/04/19 04:39:41;;;;;;;3.53;1.88;;;;;;;;;;4895654;29;20067;-62
2022/04/19 04:42:06;;;;;;;5.53;2.00;;;;;;;;;;4894801;29;20056;-63
2022/04/19 04:44:32;;;;;;;3.60;1.77;;;;;;;;;;4901868;28;20052;-63
2022/04/19 04:49:41;;;;;;;6.55;2.20;;;;;;;;;;4909002;29;20079;-64
2022/04/19 04:52:12;;;;;;;6.70;2.20;;;;;;;;;;4891515;29;20048;-65
2022/04/19 04:54:39;;;;;;;10.18;1.80;;;;;;;;;;4889246;29;20049;-65
2022/04/19 04:57:05;;;;;;;4.50;2.05;;;;;;;;;;4890815;29;20083;-64
2022/04/19 04:59:32;;;;;;;3.13;1.80;;;;;;;;;;4890444;29;20045;-65
2022/04/19 05:01:58;;;;;;;4.38;1.85;;;;;;;;;;4892658;29;20044;-64
2022/04/19 05:04:24;;;;;;;4.22;1.80;;;;;;;;;;4892495;29;20113;-63
2022/04/19 05:06:49;;;;;;;3.28;2.10;;;;;;;;;;4891259;29;20444;-65
2022/04/19 05:09:14;;;;;;;3.55;2.22;;;;;;;;;;4891033;29;20058;-64
2022/04/19 05:11:40;;;;;;;5.30;1.92;;;;;;;;;;4893971;29;20499;-64
2022/04/19 05:14:07;;;;;;;2.92;1.75;;;;;;;;;;4891094;29;20056;-64
2022/04/19 05:16:36;;;;;;;8.18;2.10;;;;;;;;;;4891288;29;20056;-64
2022/04/19 05:19:03;;;;;;;6.47;2.03;;;;;;;;;;4889253;29;21057;-66
2022/04/19 05:21:28;;;;;;;4.03;2.20;;;;;;;;;;4886932;29;20464;-63
2022/04/19 05:23:55;;;;;;;4.78;1.67;;;;;;;;;;4891854;29;20044;-64
2022/04/19 05:26:21;;;;;;;4.53;1.92;;;;;;;;;;4891996;29;20060;-65
2022/04/19 05:28:46;;;;;;;7.85;2.13;;;;;;;;;;4891597;29;20495;-64
2022/04/19 05:31:11;;;;;;;4.72;2.42;;;;;;;;;;4894905;29;20075;-65
2022/04/19 05:33:37;;;;;;;11.70;2.40;;;;;;;;;;4894105;29;20044;-64
2022/04/19 05:36:02;;;;;;;5.53;2.10;;;;;;;;;;4893457;29;20045;-65
2022/04/19 05:38:28;;;;;;;7.45;2.58;;;;;;;;;;4892905;29;20049;-65
2022/04/19 05:40:53;;;;;;;3.70;2.33;;;;;;;;;;4895530;29;20044;-65
2022/04/19 05:43:19;;;;;;;4.40;2.33;;;;;;;;;;4896551;29;20040;-66
2022/04/19 05:45:44;;;;;;;6.20;2.33;;;;;;;;;;4897599;29;20057;-65
2022/04/19 05:48:10;;;;;;;6.40;2.17;;;;;;;;;;4897705;29;20107;-65
2022/04/19 05:50:35;;;;;;;5.95;2.13;;;;;;;;;;4897097;29;20079;-65
2022/04/19 05:53:01;;;;;;;4.65;2.30;;;;;;;;;;4894645;29;20063;-64
2022/04/19 05:55:26;;;;;;;3.05;2.00;;;;;;;;;;4895433;29;20124;-67
2022/04/19 05:57:52;;;;;;;5.05;2.20;;;;;;;;;;4894372;29;20036;-62
2022/04/19 06:00:18;;;;;;;7.70;2.40;;;;;;;;;;4893091;29;20060;-62
2022/04/19 06:05:27;;;;;;;3.25;2.10;;;;;;;;;;4895326;29;20459;-65
2022/04/19 06:07:54;;;;;;;2.60;2.00;;;;;;;;;;4894772;29;20131;-62
2022/04/19 06:10:20;;;;;;;4.10;1.98;;;;;;;;;;4893633;29;20119;-54
2022/04/19 06:12:46;;;;;;;3.67;2.10;;;;;;;;;;4893901;29;20057;-56
2022/04/19 06:15:12;;;;;;;3.65;2.10;;;;;;;;;;4893863;29;20052;-61
2022/04/19 06:17:38;;;;;;;3.67;2.10;;;;;;;;;;4906537;29;20167;-53
2022/04/19 06:20:05;;;;;;;3.50;2.45;;;;;;;;;;4910815;28;20384;-57
2022/04/19 06:22:32;;;;;;;4.30;2.20;;;;;;;;;;4897934;29;20096;-57
2022/04/19 06:24:58;;;;;;;4.15;2.03;;;;;;;;;;4914608;29;20047;-54
2022/04/19 06:27:24;;;;;;;7.05;2.30;;;;;;;;;;4913623;29;20060;-50
2022/04/19 06:29:52;;;;;;;2.55;2.03;;;;;;;;;;4913090;29;20076;-52
2022/04/19 06:32:17;;;;;;;6.45;2.20;;;;;;;;;;4909103;29;20060;-54
2022/04/19 06:34:43;;;;;;;4.15;2.10;;;;;;;;;;4894850;29;20039;-56
2022/04/19 06:37:09;;;;;;;3.38;2.80;;;;;;;;;;4916099;29;20034;-57
2022/04/19 06:39:34;;;;;;;3.10;2.15;;;;;;;;;;4910993;29;20082;-53
2022/04/19 06:42:00;;;;;;;3.83;2.30;;;;;;;;;;4913293;29;20143;-55
2022/04/19 06:44:26;;;;;;;3.33;1.85;;;;;;;;;;4910413;29;20089;-57
2022/04/19 06:46:52;;;;;;;3.25;2.28;;;;;;;;;;4911967;28;20054;-55
2022/04/19 06:49:17;;;;;;;3.25;1.98;;;;;;;;;;4914765;29;20044;-59
2022/04/19 06:51:43;;;;;;;4.95;2.17;;;;;;;;;;4897425;29;20044;-56
2022/04/19 06:54:09;;;;;;;3.38;2.20;;;;;;;;;;4888553;29;20056;-57
2022/04/19 06:56:35;;;;;;;2.40;1.90;;;;;;;;;;4894347;29;20179;-57
2022/04/19 06:59:01;;;;;;;2.78;2.03;;;;;;;;;;4899498;29;20039;-56
2022/04/19 07:01:27;;;;;;;4.35;2.00;;;;;;;;;;4914829;29;20067;-60
2022/04/19 07:03:53;;;;;;;3.88;2.10;;;;;;;;;;4915531;29;20048;-57
2022/04/19 07:06:19;;;;;;;3.58;2.30;;;;;;;;;;4907882;29;20044;-58
2022/04/19 07:08:45;;;;;;;6.10;2.30;;;;;;;;;;4908096;29;20095;-56
2022/04/19 07:11:15;;;;;;;5.80;2.20;;;;;;;;;;4906473;29;20514;-58
2022/04/19 07:13:41;;;;;;;10.35;2.30;;;;;;;;;;4894610;29;20041;-55
2022/04/19 07:16:07;;;;;;;9.50;2.50;;;;;;;;;;4897133;29;20066;-58
2022/04/19 07:18:33;;;;;;;4.85;3.13;;;;;;;;;;4894021;29;20156;-56
2022/04/19 07:26:40;;;;;;;5.80;2.00;;;;;;;;;;4900116;29;20128;-57
2022/04/19 07:29:07;;;;;;;3.85;1.90;;;;;;;;;;4914134;28;20499;-59
2022/04/19 07:31:33;;;;;;;3.05;1.95;;;;;;;;;;4911583;29;20402;-58
2022/04/19 07:33:59;;;;;;;4.60;1.77;;;;;;;;;;4892477;29;20119;-59
2022/04/19 07:36:24;;;;;;;4.20;2.10;;;;;;;;;;4890744;29;20040;-56
2022/04/19 07:38:50;;;;;;;5.97;2.15;;;;;;;;;;4894511;29;20115;-58
2022/04/19 07:41:17;;;;;;;3.50;2.10;;;;;;;;;;4893887;29;20048;-58
2022/04/19 07:43:44;;;;;;;5.35;2.58;;;;;;;;;;4894225;29;20055;-57
2022/04/19 07:46:10;;;;;;;6.38;2.28;;;;;;;;;;4892825;29;20064;-56
2022/04/19 07:48:36;;;;;;;4.97;2.50;;;;;;;;;;4891208;29;20060;-59
2022/04/19 07:51:03;;;;;;;9.80;2.22;;;;;;;;;;4894935;29;20111;-57
2022/04/19 07:53:28;;;;;;;7.20;2.30;;;;;;;;;;4895930;29;20076;-55
2022/04/19 07:55:57;;;;;;;5.25;2.08;;;;;;;;;;4890142;29;20041;-57
2022/04/19 07:58:23;;;;;;;4.72;2.25;;;;;;;;;;4893876;29;20044;-56
2022/04/19 08:00:48;;;;;;;4.95;2.65;;;;;;;;;;4890340;29;20104;-56
2022/04/19 08:03:14;;;;;;;5.80;2.10;;;;;;;;;;4895897;29;20052;-57
2022/04/19 08:05:39;;;;;;;4.13;2.25;;;;;;;;;;4894969;29;20045;-56
2022/04/19 08:08:05;;;;;;;9.02;3.20;;;;;;;;;;4890281;29;20829;-57
2022/04/19 08:10:30;;;;;;;9.70;3.47;;;;;;;;;;4895601;29;20119;-56
2022/04/19 08:12:56;;;;;;;11.32;3.75;;;;;;;;;;4893776;29;20040;-55
2022/04/19 08:15:21;;;;;;;15.00;3.60;;;;;;;;;;4892797;29;20053;-55
2022/04/19 08:17:47;;;;;;;12.20;3.60;;;;;;;;;;4892993;29;20612;-56
2022/04/19 08:20:13;;;;;;;20.42;3.58;;;;;;;;;;4895088;29;20052;-57
2022/04/19 08:22:39;;;;;;;5.47;2.60;;;;;;;;;;4892097;29;20043;-57
2022/04/19 08:25:06;;;;;;;10.90;3.28;;;;;;;;;;4894576;29;20100;-55
2022/04/19 08:27:32;;;;;;;11.07;3.03;;;;;;;;;;4891217;29;20056;-55
2022/04/19 08:29:57;;;;;;;7.55;3.20;;;;;;;;;;4892350;29;20052;-58
2022/04/19 08:32:22;;;;;;;12.13;3.25;;;;;;;;;;4891716;29;20510;-56
2022/04/19 08:34:48;;;;;;;12.35;4.05;;;;;;;;;;4891459;29;20104;-57
2022/04/19 08:37:13;;;;;;;19.17;4.20;;;;;;;;;;4893295;29;20520;-55
2022/04/19 08:39:39;;;;;;;14.50;3.90;;;;;;;;;;4890813;29;20047;-59
2022/04/19 08:42:06;;;;;;;12.15;3.97;;;;;;;;;;4892254;29;20060;-58
2022/04/19 08:44:35;;;;;;;10.02;4.20;;;;;;;;;;4895756;29;20097;-56
2022/04/19 08:47:05;;;;;;;15.18;4.72;;;;;;;;;;4893819;29;20048;-55
2022/04/19 08:49:31;;;;;;;9.23;3.88;;;;;;;;;;4894912;29;20040;-58
2022/04/19 08:51:57;;;;;;;10.10;4.35;;;;;;;;;;4892983;29;20044;-55
2022/04/19 08:59:53;;;;;;;11.90;4.40;;;;;;;;;;4902716;29;20088;-58
2022/04/19 09:02:22;;;;;;;5.88;3.80;;;;;;;;;;4894644;29;20053;-58
2022/04/19 09:04:50;;;;;;;9.68;4.40;;;;;;;;;;4900427;29;22022;-58
2022/04/19 09:07:16;;;;;;;9.57;4.03;;;;;;;;;;4916572;29;20399;-56
2022/04/19 09:09:42;;;;;;;10.30;4.47;;;;;;;;;;4899217;29;20049;-57
2022/04/19 09:12:12;;;;;;;10.93;4.70;;;;;;;;;;4910035;29;20052;-58
2022/04/19 09:14:53;;;;;;;7.07;4.60;;;;;;;;;;4917416;29;20108;-58
2022/04/19 09:17:30;;;;;;;8.10;3.97;;;;;;;;;;4929687;29;20526;-58
2022/04/19 09:20:10;;;;;;;6.93;3.97;;;;;;;;;;4912503;29;20483;-59
2022/04/19 09:22:39;;;;;;;6.05;3.90;;;;;;;;;;4913618;28;20104;-57
2022/04/19 09:25:24;;;;;;;7.15;4.55;;;;;;;;;;4911787;29;20119;-57
2022/04/19 09:27:51;;;;;;;11.07;4.32;;;;;;;;;;4893597;29;20055;-55
2022/04/19 09:30:18;;;;;;;8.13;4.32;;;;;;;;;;4894617;29;20052;-53
2022/04/19 09:33:03;;;;;;;6.88;4.32;;;;;;;;;;4893978;29;20104;-55
2022/04/19 09:35:34;;;;;;;9.02;3.97;;;;;;;;;;4893657;29;20671;-57
2022/04/19 09:37:59;;;;;;;11.55;4.60;;;;;;;;;;4896133;29;20414;-58
2022/04/19 09:40:45;;;;;;;9.82;4.32;;;;;;;;;;4894939;29;20123;-56
2022/04/19 09:43:24;;;;;;;11.95;4.30;;;;;;;;;;4914579;29;20071;-56
2022/04/19 09:46:03;;;;;;;5.72;4.25;;;;;;;;;;4912919;29;20047;-55
2022/04/19 09:48:36;;;;;;;9.45;4.65;;;;;;;;;;4917550;29;20119;-54
2022/04/19 09:51:09;;;;;;;5.00;4.03;;;;;;;;;;4914062;28;20056;-52
2022/04/19 09:53:42;;;;;;;8.02;4.38;;;;;;;;;;4914146;29;20052;-53
2022/04/19 09:56:10;;;;;;;9.07;4.78;;;;;;;;;;4914979;28;20410;-57
2022/04/19 09:58:37;;;;;;;8.63;4.53;;;;;;;;;;4914078;29;20157;-54
2022/04/19 10:01:04;;;;;;;6.13;4.47;;;;;;;;;;4913593;29;20040;-57
2022/04/19 10:08:59;;;;;;;6.88;4.55;;;;;;;;;;4914600;29;20086;-57
2022/04/19 10:11:28;;;;;;;7.72;5.00;;;;;;;;;;4913235;29;20044;-54
2022/04/19 10:13:55;;;;;;;7.43;4.70;;;;;;;;;;4913876;29;20048;-55
2022/04/19 10:16:22;;;;;;;8.02;4.82;;;;;;;;;;4912268;29;20368;-53
2022/04/19 10:18:47;;;;;;;8.98;5.07;;;;;;;;;;4913997;29;20048;-56
2022/04/19 10:21:16;;;;;;;8.20;4.13;;;;;;;;;;4913734;29;20044;-56
2022/04/19 10:23:43;;;;;;;9.30;5.07;;;;;;;;;;4910784;29;20136;-53
2022/04/19 10:26:12;;;;;;;7.93;4.43;;;;;;;;;;4911541;29;20455;-53
2022/04/19 10:28:38;;;;;;;9.57;5.07;;;;;;;;;;4914771;29;20106;-51
2022/04/19 10:31:04;;;;;;;8.40;4.93;;;;;;;;;;4913710;29;20483;-57
2022/04/19 10:33:41;;;;;;;10.73;5.28;;;;;;;;;;4912632;29;20051;-56
2022/04/19 10:36:22;;;;;;;10.52;4.80;;;;;;;;;;4914800;29;20500;-57
2022/04/19 10:39:15;;;;;;;9.13;5.47;;;;;;;;;;4912462;29;20471;-53
2022/04/19 10:41:53;;;;;;;;;;;;;;;;;;4914345;29;20056;-54
2022/04/19 10:44:52;;;;;;;8.05;5.30;;;;;;;;;;4908211;29;20504;-57
2022/04/19 10:47:23;;;;;;;9.10;5.13;;;;;;;;;;4910865;29;20406;-55
2022/04/19 10:50:04;;;;;;;7.00;5.03;;;;;;;;;;4913112;29;20060;-54
2022/04/19 10:52:44;;;;;;;7.75;5.40;;;;;;;;;;4909849;28;20055;-57
2022/04/19 10:55:24;;;;;;;7.85;5.28;;;;;;;;;;4913731;29;20047;-55
2022/04/19 11:00:42;;;;;;;7.65;5.53;;;;;;;;;;4914863;29;20044;-52
2022/04/19 11:03:09;;;;;;;11.15;5.57;;;;;;;;;;4911637;29;20071;-54
2022/04/19 11:05:46;;;;;;;12.48;4.95;;;;;;;;;;4911125;29;20483;-55
2022/04/19 11:08:26;;;;;;;217.40;16.05;;;;;;;;;;4910443;29;20076;-54
2022/04/19 11:10:52;;;;;;;8.20;5.07;;;;;;;;;;4911384;29;20079;-54
2022/04/19 11:13:31;;;;;;;9.70;5.78;;;;;;;;;;4913687;29;20131;-54
2022/04/19 11:16:05;;;;;;;10.27;5.18;;;;;;;;;;4912960;29;20433;-55
2022/04/19 11:18:54;;;;;;;7.57;4.70;;;;;;;;;;4912680;29;20128;-54
2022/04/19 11:22:05;;;;;;;7.15;5.20;;;;;;;;;;4910511;29;20052;-55
2022/04/19 11:24:58;;;;;;;6.18;4.65;;;;;;;;;;4908827;29;20080;-55
2022/04/19 11:27:44;;;;;;;7.28;4.70;;;;;;;;;;4910378;29;20043;-56
2022/04/19 11:30:13;;;;;;;8.30;5.00;;;;;;;;;;4896037;29;20140;-53
2022/04/19 11:32:39;;;;;;;8.45;5.25;;;;;;;;;;4905297;29;20051;-54
2022/04/19 11:35:04;;;;;;;7.63;4.85;;;;;;;;;;4912444;29;20126;-56
2022/04/19 11:37:31;;;;;;;7.75;4.95;;;;;;;;;;4912345;29;20055;-57
2022/04/19 11:48:31;;;;;;;6.65;4.88;;;;;;;;;;4894529;29;20100;-53
2022/04/19 11:51:10;;;;;;;8.77;5.45;;;;;;;;;;4892845;29;20055;-57
2022/04/19 11:53:36;;;;;;;9.45;4.88;;;;;;;;;;4899562;29;20056;-57
2022/04/19 11:56:03;;;;;;;8.52;5.22;;;;;;;;;;4908498;29;20498;-57
2022/04/19 11:58:30;;;;;;;7.80;5.20;;;;;;;;;;4912029;29;20036;-55
2022/04/19 12:00:58;;;;;;;7.43;4.75;;;;;;;;;;4909807;29;20115;-56
2022/04/19 12:03:26;;;;;;;8.40;5.10;;;;;;;;;;4912115;29;20447;-56
2022/04/19 12:05:54;;;;;;;8.48;4.88;;;;;;;;;;4912344;29;20052;-55
2022/04/19 12:08:33;;;;;;;8.10;4.95;;;;;;;;;;4910793;29;20067;-56
2022/04/19 12:11:00;;;;;;;8.75;4.90;;;;;;;;;;4912949;29;20044;-53
2022/04/19 12:13:26;;;;;;;8.18;4.50;;;;;;;;;;4911461;29;20376;-51
2022/04/19 12:15:51;;;;;;;6.03;4.40;;;;;;;;;;4913098;29;20055;-52
2022/04/19 12:18:31;;;;;;;8.85;5.03;;;;;;;;;;4909716;29;20052;-56
2022/04/19 12:20:56;;;;;;;9.10;4.90;;;;;;;;;;4910985;29;20110;-54
2022/04/19 12:23:22;;;;;;;6.32;4.72;;;;;;;;;;4906157;29;20506;-56
2022/04/19 12:26:07;;;;;;;8.18;4.40;;;;;;;;;;4911694;29;20071;-56
2022/04/19 12:28:46;;;;;;;8.43;4.80;;;;;;;;;;4909003;29;20471;-56
2022/04/19 12:31:35;;;;;;;6.22;4.40;;;;;;;;;;4892805;29;20084;-56
2022/04/19 12:34:02;;;;;;;8.50;5.13;;;;;;;;;;4910556;29;20057;-56
2022/04/19 12:36:28;;;;;;;7.05;4.00;;;;;;;;;;4913821;29;20140;-55
2022/04/19 12:39:12;;;;;;;7.93;4.32;;;;;;;;;;4912069;29;20100;-54
2022/04/19 12:41:40;;;;;;;7.63;3.92;;;;;;;;;;4911114;29;20079;-53
2022/04/19 12:44:07;;;;;;;5.68;3.67;;;;;;;;;;4910408;29;20056;-56
2022/04/19 12:46:41;;;;;;;8.65;3.78;;;;;;;;;;4911705;29;20036;-55
2022/04/19 12:49:07;;;;;;;5.97;3.50;;;;;;;;;;4911922;29;20047;-56
2022/04/19 12:51:35;;;;;;;7.43;3.80;;;;;;;;;;4910186;29;20588;-56
2022/04/19 12:54:08;;;;;;;4.57;3.70;;;;;;;;;;4910371;29;20397;-56
2022/04/19 12:56:34;;;;;;;7.55;4.40;;;;;;;;;;4910748;29;20069;-54
2022/04/19 12:59:00;;;;;;;7.28;3.88;;;;;;;;;;4912254;29;20104;-52
2022/04/19 13:01:26;;;;;;;6.22;3.50;;;;;;;;;;4909732;29;20032;-54
2022/04/19 13:03:51;;;;;;;5.53;3.33;;;;;;;;;;4907950;29;20063;-54
2022/04/19 13:14:28;;;;;;;5.10;2.58;;;;;;;;;;4908646;29;20103;-55
2022/04/19 13:16:54;;;;;;;5.70;2.80;;;;;;;;;;4905748;29;20127;-57
2022/04/19 13:19:20;;;;;;;6.70;2.65;;;;;;;;;;4913592;29;20039;-56
2022/04/19 13:21:45;;;;;;;4.85;2.30;;;;;;;;;;4908884;29;20055;-57
2022/04/19 13:24:11;;;;;;;4.85;2.22;;;;;;;;;;4910301;29;20285;-56
2022/04/19 13:26:36;;;;;;;5.22;2.38;;;;;;;;;;4910164;29;20048;-58
2022/04/19 13:29:02;;;;;;;4.15;2.22;;;;;;;;;;4907912;29;20037;-56
2022/04/19 13:31:28;;;;;;;5.43;2.17;;;;;;;;;;4911900;29;20119;-56
2022/04/19 13:33:53;;;;;;;4.70;1.88;;;;;;;;;;4912559;29;20131;-55
2022/04/19 13:36:18;;;;;;;9.75;2.10;;;;;;;;;;4909354;29;20212;-56
2022/04/19 13:38:44;;;;;;;8.95;2.00;;;;;;;;;;4910447;29;20056;-55
2022/04/19 13:41:10;;;;;;;8.15;1.75;;;;;;;;;;4907870;29;20059;-56
2022/04/19 13:43:37;;;;;;;4.10;2.08;;;;;;;;;;4910288;29;20076;-53
2022/04/19 13:46:03;;;;;;;3.67;1.70;;;;;;;;;;4906856;29;20041;-54
2022/04/19 13:48:29;;;;;;;5.53;1.70;;;;;;;;;;4911916;29;20158;-56
2022/04/19 13:50:55;;;;;;;4.57;2.13;;;;;;;;;;4913171;29;20040;-54
2022/04/19 13:53:20;;;;;;;2.78;1.95;;;;;;;;;;4910126;29;20054;-57
2022/04/19 13:55:46;;;;;;;3.05;2.13;;;;;;;;;;4905471;29;20036;-56
2022/04/19 13:58:12;;;;;;;2.65;2.05;;;;;;;;;;4931180;29;20044;-57
2022/04/19 14:00:37;;;;;;;3.05;1.70;;;;;;;;;;4911435;29;20059;-57
2022/04/19 14:03:03;;;;;;;1.65;1.35;;;;;;;;;;4911731;29;20495;-57
2022/04/19 14:05:29;;;;;;;3.08;1.30;;;;;;;;;;4909687;29;20450;-56
2022/04/19 14:07:54;;;;;;;5.38;1.23;;;;;;;;;;4912849;29;20044;-55
2022/04/19 14:10:20;;;;;;;10.48;1.58;;;;;;;;;;4909516;29;20051;-55
2022/04/19 14:12:45;;;;;;;3.28;1.30;;;;;;;;;;4915816;29;20055;-57
2022/04/19 14:15:11;;;;;;;2.30;1.20;;;;;;;;;;4910836;29;20079;-57
2022/04/19 14:17:37;;;;;;;7.15;1.27;;;;;;;;;;4912987;29;20491;-57
2022/04/19 14:20:04;;;;;;;6.13;1.50;;;;;;;;;;4911635;29;20499;-57
2022/04/19 14:22:30;;;;;;;1.83;1.45;;;;;;;;;;4915416;29;20068;-55
2022/04/19 14:24:56;;;;;;;1.10;0.90;;;;;;;;;;4914103;29;20495;-53
2022/04/19 14:27:21;;;;;;;4.15;1.50;;;;;;;;;;4911701;29;20463;-55
2022/04/19 14:35:15;;;;;;;2.10;1.08;;;;;;;;;;4912296;29;20559;-58
2022/04/19 14:37:41;;;;;;;2.05;1.20;;;;;;;;;;4912470;29;20035;-56
2022/04/19 14:40:07;;;;;;;2.53;1.00;;;;;;;;;;4914957;29;20459;-56
2022/04/19 14:42:32;;;;;;;1.33;1.00;;;;;;;;;;4912511;29;20063;-56
2022/04/19 14:44:58;;;;;;;2.42;0.98;;;;;;;;;;4912045;29;20052;-53
2022/04/19 14:47:23;;;;;;;3.58;1.00;;;;;;;;;;4911636;29;20055;-56
2022/04/19 14:49:48;;;;;;;1.25;0.85;;;;;;;;;;4913190;28;20055;-56
2022/04/19 14:52:14;;;;;;;0.88;0.88;;;;;;;;;;4913745;29;20431;-57
2022/04/19 14:54:44;;;;;;;1.42;0.80;;;;;;;;;;4912675;29;20040;-55
2022/04/19 14:57:11;;;;;;;2.83;0.70;;;;;;;;;;4914849;29;20048;-57
2022/04/19 14:59:37;;;;;;;0.60;0.60;;;;;;;;;;4911907;29;20056;-56
2022/04/19 15:02:06;;;;;;;3.95;0.90;;;;;;;;;;4911846;29;20052;-54
2022/04/19 15:04:31;;;;;;;2.05;0.80;;;;;;;;;;4912496;29;20040;-56
2022/04/19 15:06:57;;;;;;;2.05;0.70;;;;;;;;;;4912850;29;20087;-56
2022/04/19 15:09:23;;;;;;;5.20;0.77;;;;;;;;;;4904914;29;20059;-56
2022/04/19 15:11:49;;;;;;;0.82;0.80;;;;;;;;;;4914181;29;20052;-56
2022/04/19 15:14:14;;;;;;;0.82;0.45;;;;;;;;;;4912161;29;20072;-57
2022/04/19 15:16:40;;;;;;;1.55;0.40;;;;;;;;;;4908440;29;20482;-57
2022/04/19 15:19:05;;;;;;;1.48;0.50;;;;;;;;;;4910039;29;20052;-57
2022/04/19 15:21:31;;;;;;;1.63;0.70;;;;;;;;;;4912222;29;20498;-56
2022/04/19 15:23:56;;;;;;;1.83;0.55;;;;;;;;;;4913344;29;20451;-57
2022/04/19 15:26:22;;;;;;;2.95;1.00;;;;;;;;;;4909309;29;20060;-57
2022/04/19 15:28:49;;;;;;;2.92;0.60;;;;;;;;;;4911093;29;20496;-55
2022/04/19 15:31:15;;;;;;;0.70;0.60;;;;;;;;;;4913077;29;20032;-56
2022/04/19 15:33:40;;;;;;;2.97;0.65;;;;;;;;;;4912280;29;20103;-56
2022/04/19 15:36:06;;;;;;;2.92;0.60;;;;;;;;;;4915317;29;20055;-58
2022/04/19 15:38:32;;;;;;;2.65;0.60;;;;;;;;;;4911914;29;20134;-54
2022/04/19 15:40:57;;;;;;;1.00;0.50;;;;;;;;;;4912813;29;20036;-55